Time;durP1;ratioP1;P1;durP2;ratioP2;P2;SDS_P1;SDS_P2;PMS_P1;PMS_P2;Temp;Humidity;BMP_temperature;BMP_pressure;BME280_temperature;BME280_humidity;BME280_pressure;Samples;Min_cycle;Max_cycle;Signal;HPM_P1;HPM_P2
2023/06/23 00:02:22;;;;;;;115.60;16.45;;;;;;;25.06;49.06;101738.31;21075090;28;20044;-57
2023/06/23 00:12:24;;;;;;;85.78;15.10;;;;;;;25.07;49.06;101731.63;21085081;28;20398;-56
2023/06/23 00:22:27;;;;;;;77.78;13.65;;;;;;;25.07;48.81;101731.63;21091035;28;20043;-58
2023/06/23 00:32:28;;;;;;;63.30;13.45;;;;;;;25.05;49.01;101719.84;21089649;28;20036;-58
2023/06/23 00:42:30;;;;;;;56.38;12.30;;;;;;;25.07;48.96;101740.88;21089090;28;20027;-58
2023/06/23 00:52:31;;;;;;;46.17;10.05;;;;;;;25.05;48.78;101723.47;21088573;28;20028;-57
2023/06/23 01:02:33;;;;;;;50.95;10.40;;;;;;;25.07;48.75;101721.28;21087566;28;20445;-57
2023/06/23 01:12:48;;;;;;;38.75;9.75;;;;;;;25.03;48.64;101719.31;21086745;28;20036;-57
2023/06/23 01:23:27;;;;;;;42.80;9.38;;;;;;;25.02;48.67;101737.25;21085509;28;20050;-57
2023/06/23 01:33:42;;;;;;;30.75;7.78;;;;;;;25.06;48.68;101760.72;21085571;28;20044;-58
2023/06/23 01:43:48;;;;;;;26.15;7.15;;;;;;;25.05;48.48;101767.47;21084602;28;20425;-58
2023/06/23 01:53:54;;;;;;;34.87;8.13;;;;;;;25.07;48.64;101779.22;21083809;28;20036;-58
2023/06/23 02:04:00;;;;;;;22.00;6.82;;;;;;;25.05;48.55;101764.66;21082498;28;20102;-57
2023/06/23 02:14:02;;;;;;;19.65;6.28;;;;;;;25.07;48.34;101771.69;21082663;28;20101;-59
2023/06/23 02:24:06;;;;;;;19.83;5.82;;;;;;;25.08;48.59;101764.13;21081365;28;20052;-57
2023/06/23 02:34:08;;;;;;;16.92;5.45;;;;;;;25.07;48.48;101765.22;21080886;28;20032;-57
2023/06/23 02:44:13;;;;;;;14.27;5.10;;;;;;;25.06;48.36;101769.13;21080250;28;20040;-58
2023/06/23 02:54:17;;;;;;;11.90;5.78;;;;;;;25.07;48.30;101745.63;21079339;28;20426;-58
2023/06/23 03:04:19;;;;;;;16.88;5.25;;;;;;;25.06;48.55;101744.78;21078543;28;20051;-57
2023/06/23 03:14:21;;;;;;;14.95;4.88;;;;;;;24.97;48.64;101734.47;21077926;28;20051;-59
2023/06/23 03:24:26;;;;;;;14.27;4.57;;;;;;;25.03;48.34;101747.31;21077249;28;20043;-56
2023/06/23 03:34:36;;;;;;;9.35;3.88;;;;;;;25.06;48.43;101752.31;21077131;28;20391;-57
2023/06/23 03:44:49;;;;;;;6.65;3.60;;;;;;;25.00;48.36;101733.88;21075127;28;20043;-58
2023/06/23 03:54:56;;;;;;;10.57;4.07;;;;;;;25.02;48.44;101754.06;21075502;28;20047;-56
2023/06/23 04:05:01;;;;;;;11.23;3.42;;;;;;;25.06;48.34;101749.53;21075154;28;20479;-56
2023/06/23 04:15:06;;;;;;;8.02;3.40;;;;;;;25.00;48.44;101731.09;21075252;28;20032;-56
2023/06/23 04:25:15;;;;;;;7.25;3.33;;;;;;;25.05;48.36;101737.47;21074049;28;20101;-55
2023/06/23 04:35:17;;;;;;;6.10;2.90;;;;;;;25.07;48.43;101728.81;21073302;28;20036;-57
2023/06/23 04:45:21;;;;;;;6.50;3.28;;;;;;;25.06;48.34;101711.19;21073738;28;20472;-57
2023/06/23 04:55:30;;;;;;;8.63;3.08;;;;;;;25.01;48.21;101718.75;21075631;28;20044;-58
2023/06/23 05:05:33;;;;;;;5.63;3.00;;;;;;;25.01;48.46;101710.34;21087895;28;20074;-56
2023/06/23 05:15:34;;;;;;;5.38;3.00;;;;;;;25.07;48.39;101715.69;21088682;28;20036;-60
2023/06/23 05:25:37;;;;;;;6.40;2.60;;;;;;;25.07;48.31;101700.81;21086536;28;20044;-56
2023/06/23 05:35:43;;;;;;;3.92;2.20;;;;;;;25.03;48.47;101696.91;21085639;28;20048;-57
2023/06/23 05:45:44;;;;;;;5.60;2.53;;;;;;;25.06;48.06;101691.56;21083030;28;20106;-57
2023/06/23 05:56:11;;;;;;;5.22;2.83;;;;;;;25.00;48.22;101677.88;21083484;28;20036;-58
2023/06/23 06:06:14;;;;;;;6.45;2.70;;;;;;;25.07;48.08;101684.00;21082851;28;20024;-60
2023/06/23 06:16:19;;;;;;;4.28;2.33;;;;;;;24.96;48.28;101652.44;21082850;28;20036;-58
2023/06/23 06:26:21;;;;;;;4.20;2.03;;;;;;;25.06;48.24;101665.50;21081982;28;20044;-60
2023/06/23 06:36:27;;;;;;;4.80;2.53;;;;;;;25.05;48.00;101642.28;21080960;28;20044;-58
2023/06/23 06:46:30;;;;;;;4.40;2.10;;;;;;;25.05;48.04;101621.84;21080134;28;20471;-55
2023/06/23 06:56:31;;;;;;;5.68;2.03;;;;;;;25.03;48.15;101618.50;21079373;28;20101;-55
2023/06/23 07:06:36;;;;;;;4.38;2.05;;;;;;;24.64;48.12;101574.56;21078604;28;20472;-57
2023/06/23 07:16:38;;;;;;;2.53;1.65;;;;;;;25.03;48.12;101610.13;21077960;28;20376;-57
2023/06/23 07:26:40;;;;;;;4.80;2.05;;;;;;;25.05;48.02;101619.03;21077067;28;20074;-58
2023/06/23 07:36:44;;;;;;;3.15;1.98;;;;;;;25.05;48.31;101607.84;21077033;28;20044;-59
2023/06/23 07:46:48;;;;;;;3.05;2.10;;;;;;;25.04;48.11;101621.00;21076738;28;20036;-58
2023/06/23 07:56:49;;;;;;;4.35;1.85;;;;;;;25.02;48.15;101614.06;21075557;28;20040;-57
2023/06/23 08:06:51;;;;;;;3.03;1.85;;;;;;;25.04;48.23;101617.38;21074799;28;20043;-55
2023/06/23 08:16:53;;;;;;;2.78;1.50;;;;;;;25.04;48.08;101600.56;21075045;28;20028;-57
2023/06/23 08:26:54;;;;;;;3.08;1.52;;;;;;;25.04;48.17;101600.56;21074052;28;20446;-58
2023/06/23 08:36:55;;;;;;;2.65;1.77;;;;;;;25.02;48.30;101580.44;21089524;28;20040;-58
2023/06/23 08:47:02;;;;;;;2.10;1.30;;;;;;;25.04;48.07;101570.59;21089275;28;20040;-59
2023/06/23 08:57:04;;;;;;;3.70;1.67;;;;;;;25.03;48.05;101545.72;21088437;28;20119;-57
2023/06/23 09:07:05;;;;;;;3.40;1.60;;;;;;;25.05;48.04;101554.63;21088713;28;20093;-57
2023/06/23 09:17:08;;;;;;;1.92;1.52;;;;;;;25.04;48.22;101550.19;21087081;28;20043;-59
2023/06/23 09:27:10;;;;;;;2.33;1.23;;;;;;;25.04;48.17;101561.38;21086950;28;20032;-58
2023/06/23 09:37:13;;;;;;;2.33;1.30;;;;;;;25.03;47.82;101559.72;21085252;28;20032;-57
2023/06/23 09:47:16;;;;;;;2.38;1.42;;;;;;;25.01;48.03;101575.94;21084758;28;20036;-57
2023/06/23 09:57:19;;;;;;;1.60;1.20;;;;;;;25.04;47.90;101572.56;21083193;28;20441;-57
2023/06/23 10:07:24;;;;;;;1.50;1.25;;;;;;;25.02;48.04;101558.03;21083332;28;20447;-58
2023/06/23 10:17:26;;;;;;;2.20;1.40;;;;;;;24.89;47.80;101558.72;21081976;28;20177;-58
2023/06/23 10:27:29;;;;;;;1.48;1.30;;;;;;;25.03;48.10;101573.72;21081796;28;20044;-58
2023/06/23 10:37:31;;;;;;;1.73;1.10;;;;;;;24.86;48.11;101554.53;21081486;28;20403;-58
2023/06/23 10:47:32;;;;;;;1.88;1.23;;;;;;;25.01;48.02;101573.16;21080011;28;20121;-58
2023/06/23 10:57:33;;;;;;;1.50;1.30;;;;;;;24.99;48.00;101578.22;21077741;28;20101;-57
2023/06/23 11:08:04;;;;;;;1.60;1.00;;;;;;;24.96;48.10;101581.59;21078654;28;20041;-58
2023/06/23 11:18:11;;;;;;;1.20;1.02;;;;;;;25.01;48.10;101579.59;21077674;28;20094;-56
2023/06/23 11:28:53;;;;;;;2.20;1.20;;;;;;;24.95;48.13;101580.78;21077321;28;20036;-55
2023/06/23 11:39:06;;;;;;;1.65;1.02;;;;;;;24.99;47.84;101589.44;21026274;28;20050;-58
2023/06/23 11:49:11;;;;;;;2.17;1.40;;;;;;;24.96;47.79;101578.81;21076204;28;20475;-58
2023/06/23 11:59:14;;;;;;;1.65;1.33;;;;;;;25.02;48.00;101581.28;21075421;28;20036;-58
2023/06/23 12:09:15;;;;;;;1.70;1.20;;;;;;;25.01;47.96;101584.34;21087387;28;20124;-59
2023/06/23 12:19:20;;;;;;;2.15;1.42;;;;;;;25.00;48.14;101585.50;21091304;28;20081;-58
2023/06/23 12:29:22;;;;;;;2.65;1.35;;;;;;;25.02;48.30;101592.47;21090917;28;20028;-58
2023/06/23 12:39:26;;;;;;;1.40;1.30;;;;;;;24.99;48.26;101559.47;21090207;28;20394;-58
2023/06/23 12:49:32;;;;;;;1.73;1.30;;;;;;;25.02;48.19;101558.88;21089071;28;20047;-57
2023/06/23 12:59:33;;;;;;;1.70;1.27;;;;;;;24.95;48.23;101535.97;21088480;28;20475;-57
2023/06/23 13:09:35;;;;;;;2.53;1.35;;;;;;;25.04;48.18;101566.97;21087643;28;20065;-59
2023/06/23 13:19:36;;;;;;;1.67;1.20;;;;;;;24.66;48.40;101496.78;21085624;28;20040;-56
2023/06/23 13:29:37;;;;;;;3.35;1.50;;;;;;;25.03;48.20;101549.34;21086193;28;20040;-58
2023/06/23 13:39:39;;;;;;;3.03;1.50;;;;;;;25.02;48.18;101542.06;21085125;28;20082;-58
2023/06/23 13:49:40;;;;;;;1.73;1.63;;;;;;;25.03;48.27;101535.34;21084513;28;20522;-57
2023/06/23 13:59:45;;;;;;;1.90;1.63;;;;;;;25.04;48.07;101558.56;21083524;28;20545;-58
2023/06/23 14:09:47;;;;;;;1.80;1.60;;;;;;;25.05;48.26;101558.28;21082796;28;20066;-57
2023/06/23 14:19:48;;;;;;;2.70;1.38;;;;;;;25.05;48.41;101535.03;21081903;28;20097;-56
2023/06/23 14:29:50;;;;;;;1.88;1.30;;;;;;;25.03;48.21;101529.75;21082004;28;20429;-57
2023/06/23 14:39:51;;;;;;;2.05;1.35;;;;;;;25.05;48.42;101523.84;21080890;28;20105;-57
2023/06/23 14:49:55;;;;;;;1.88;1.38;;;;;;;25.00;48.31;101507.09;21079621;28;20101;-55
2023/06/23 14:59:57;;;;;;;1.35;1.25;;;;;;;25.04;48.26;101506.19;21078473;28;20044;-58
2023/06/23 15:09:58;;;;;;;1.77;1.30;;;;;;;25.07;48.42;101499.19;21078476;28;20078;-58
2023/06/23 15:20:05;;;;;;;1.48;1.38;;;;;;;25.06;48.19;101491.91;21078095;28;20143;-58
2023/06/23 15:30:08;;;;;;;1.27;1.08;;;;;;;24.97;48.39;101462.88;21077194;28;20040;-57
2023/06/23 15:40:11;;;;;;;1.90;1.40;;;;;;;24.92;47.96;101451.72;21075705;28;20056;-56
2023/06/23 15:50:13;;;;;;;1.98;1.15;;;;;;;25.06;48.05;101458.28;21076047;28;20044;-56
2023/06/23 16:00:15;;;;;;;1.83;0.98;;;;;;;25.08;47.89;101450.47;21075204;28;20066;-58
2023/06/23 16:10:19;;;;;;;1.20;1.00;;;;;;;25.07;48.09;101448.78;21075321;28;20440;-58
2023/06/23 16:20:21;;;;;;;1.13;1.02;;;;;;;25.07;48.09;101457.19;21075970;28;20548;-56
2023/06/23 16:30:22;;;;;;;1.20;1.02;;;;;;;25.06;48.19;101444.28;21075816;28;20036;-57
2023/06/23 16:40:23;;;;;;;1.58;1.20;;;;;;;25.06;47.96;101424.69;21076224;28;20047;-58
2023/06/23 16:50:25;;;;;;;1.75;1.30;;;;;;;25.05;47.87;101428.63;21077501;28;20032;-57
2023/06/23 17:00:28;;;;;;;1.20;1.10;;;;;;;25.04;48.40;101415.78;21088079;28;20074;-58
2023/06/23 17:10:29;;;;;;;1.60;1.10;;;;;;;25.04;48.14;101397.00;21087471;28;20044;-58
2023/06/23 17:20:31;;;;;;;1.30;1.20;;;;;;;25.08;48.02;101381.31;21086366;28;20101;-57
2023/06/23 17:30:32;;;;;;;2.25;1.50;;;;;;;25.07;47.89;101342.38;21085385;28;20055;-56
2023/06/23 17:40:36;;;;;;;1.10;1.00;;;;;;;25.09;48.01;101342.94;21085602;28;20077;-58
2023/06/23 17:50:43;;;;;;;1.08;0.88;;;;;;;25.09;47.99;101324.16;21085162;28;20069;-58
2023/06/23 18:00:47;;;;;;;1.25;1.15;;;;;;;25.12;47.94;101325.53;21083363;28;20109;-57
2023/06/23 18:10:49;;;;;;;1.70;1.50;;;;;;;25.14;47.85;101314.03;21083712;28;20043;-57
2023/06/23 18:20:51;;;;;;;1.67;1.05;;;;;;;25.13;47.75;101299.19;21082263;28;20040;-57
2023/06/23 18:30:52;;;;;;;1.10;1.00;;;;;;;25.14;47.88;101303.66;21081653;28;20028;-58
2023/06/23 18:40:56;;;;;;;1.23;1.13;;;;;;;25.15;47.95;101291.31;21079500;28;20040;-57
2023/06/23 18:51:00;;;;;;;2.03;1.17;;;;;;;25.07;47.59;101278.84;21079322;28;20479;-58
2023/06/23 19:01:02;;;;;;;1.20;1.10;;;;;;;25.02;47.76;101278.06;21078580;28;20055;-59
2023/06/23 19:11:03;;;;;;;1.42;1.30;;;;;;;25.09;47.69;101265.34;21078531;28;20387;-58
2023/06/23 19:21:04;;;;;;;1.13;1.02;;;;;;;25.11;47.61;101281.88;21077013;28;20043;-57
2023/06/23 19:31:06;;;;;;;1.20;1.10;;;;;;;25.10;47.84;101268.97;21077216;28;20043;-61
2023/06/23 19:41:10;;;;;;;1.42;1.23;;;;;;;25.05;47.89;101260.63;21077730;28;20097;-59
2023/06/23 19:51:11;;;;;;;1.30;1.20;;;;;;;25.04;47.67;101258.97;21076581;28;20043;-58
2023/06/23 20:01:17;;;;;;;1.20;1.10;;;;;;;25.12;47.65;101265.91;21075840;28;20101;-58
2023/06/23 20:11:18;;;;;;;1.55;1.35;;;;;;;25.10;47.59;101268.97;21075360;28;20036;-58
2023/06/23 20:21:19;;;;;;;1.33;1.23;;;;;;;25.10;47.65;101308.19;21075107;28;20093;-58
2023/06/23 20:31:21;;;;;;;1.65;1.38;;;;;;;25.05;47.45;101278.25;21087885;28;20475;-56
2023/06/23 20:41:28;;;;;;;1.20;1.10;;;;;;;25.10;47.71;101297.00;21090354;28;20388;-57
2023/06/23 20:51:32;;;;;;;1.50;1.40;;;;;;;25.08;47.67;101283.28;21090018;28;20031;-57
2023/06/23 21:01:33;;;;;;;1.50;1.40;;;;;;;25.10;47.77;101253.00;21089164;28;20044;-59
2023/06/23 21:11:35;;;;;;;2.55;1.52;;;;;;;25.08;47.71;101243.28;21088116;28;20043;-59
2023/06/23 21:21:36;;;;;;;1.38;1.27;;;;;;;25.07;47.67;101234.03;21086353;28;20032;-58
2023/06/23 21:31:38;;;;;;;1.58;1.45;;;;;;;25.10;47.63;101211.00;21085818;28;20036;-57
2023/06/23 21:41:39;;;;;;;1.60;1.50;;;;;;;25.12;47.70;101216.31;21085334;28;20040;-59
2023/06/23 21:51:41;;;;;;;1.60;1.50;;;;;;;25.17;47.58;101205.03;21084743;28;20034;-57
2023/06/23 22:01:42;;;;;;;2.30;1.85;;;;;;;25.16;47.76;101197.78;21083522;28;20491;-58
2023/06/23 22:11:44;;;;;;;3.85;2.65;;;;;;;25.19;47.86;101199.97;21083382;28;20374;-59
2023/06/23 22:21:46;;;;;;;2.83;2.25;;;;;;;25.06;48.12;101162.34;21082263;28;20098;-57
2023/06/23 22:31:47;;;;;;;2.25;1.90;;;;;;;25.18;47.80;101181.50;21081576;28;20039;-56
2023/06/23 22:41:48;;;;;;;3.50;2.60;;;;;;;25.17;48.01;101179.84;21080561;28;20032;-59
2023/06/23 22:51:53;;;;;;;2.40;2.20;;;;;;;25.18;48.41;101167.50;21080329;28;20040;-58
2023/06/23 23:01:55;;;;;;;3.15;2.60;;;;;;;25.18;48.57;101159.09;21079489;28;20077;-56
2023/06/23 23:11:56;;;;;;;3.03;2.72;;;;;;;25.18;48.76;101161.91;21078713;28;20044;-58
2023/06/23 23:21:57;;;;;;;4.03;2.80;;;;;;;25.15;48.78;101148.50;21078063;28;20039;-58
2023/06/23 23:31:59;;;;;;;3.38;2.80;;;;;;;25.16;48.79;101136.19;21077557;28;20032;-57
2023/06/23 23:42:01;;;;;;;4.15;2.67;;;;;;;25.15;48.98;101130.84;21076697;28;20044;-58
2023/06/23 23:52:02;;;;;;;4.43;2.97;;;;;;;25.17;49.05;101118.22;21076582;28;20364;-57
